createdAt,value
2023-05-02T00:01:14.643Z,71.26
2023-05-02T00:03:42.779Z,71.02
2023-05-02T00:06:09.867Z,70.28
2023-05-02T00:08:36.555Z,70.17
2023-05-02T00:11:03.230Z,70.08
2023-05-02T00:13:30.046Z,70.01
2023-05-02T00:15:56.616Z,70.38
2023-05-02T00:18:24.246Z,70.27
2023-05-02T00:20:50.978Z,70.48
2023-05-02T00:23:17.559Z,71.20
2023-05-02T00:25:45.912Z,70.44
2023-05-02T00:28:13.759Z,70.76
2023-05-02T00:30:46.880Z,71.71
2023-05-02T00:33:15.803Z,72.65
2023-05-02T00:35:42.512Z,69.88
2023-05-02T00:38:09.294Z,70.53
2023-05-02T00:40:52.118Z,70.20
2023-05-02T00:43:19.285Z,71.02
2023-05-02T00:45:48.811Z,70.76
2023-05-02T00:48:17.842Z,70.78
2023-05-02T00:50:44.403Z,70.32
2023-05-02T00:53:11.389Z,70.51
2023-05-02T00:55:38.652Z,71.09
2023-05-02T00:58:11.978Z,71.32
2023-05-02T01:01:00.336Z,71.29
2023-05-02T01:03:51.298Z,70.91
2023-05-02T01:06:21.058Z,71.14
2023-05-02T01:09:00.342Z,70.43
2023-05-02T01:11:51.948Z,70.32
2023-05-02T01:14:21.318Z,70.53
2023-05-02T01:16:50.152Z,69.95
2023-05-02T01:19:32.207Z,70.02
2023-05-02T01:22:01.964Z,71.12
2023-05-02T01:24:53.666Z,70.57
2023-05-02T01:27:54.319Z,69.95
2023-05-02T01:30:21.911Z,69.69
2023-05-02T01:32:51.588Z,70.47
2023-05-02T01:35:20.071Z,70.78
2023-05-02T01:37:48.373Z,71.31
2023-05-02T01:40:19.500Z,70.63
2023-05-02T01:42:52.191Z,71.26
2023-05-02T01:45:21.250Z,71.12
2023-05-02T01:47:48.930Z,71.03
2023-05-02T01:50:20.324Z,70.43
2023-05-02T01:52:49.677Z,70.09
2023-05-02T01:55:17.855Z,69.43
2023-05-02T01:57:46.451Z,69.49
2023-05-02T02:00:16.394Z,69.68
2023-05-02T02:02:46.810Z,70.21
2023-05-02T02:05:16.016Z,69.58
2023-05-02T02:07:43.669Z,70.96
2023-05-02T02:10:10.673Z,69.92
2023-05-02T02:12:42.966Z,69.70
2023-05-02T02:15:21.531Z,69.50
2023-05-02T02:18:05.281Z,69.60
2023-05-02T02:20:32.684Z,70.01
2023-05-02T02:23:02.130Z,70.10
2023-05-02T02:25:29.546Z,70.00
2023-05-02T02:27:57.190Z,69.89
2023-05-02T02:30:23.878Z,69.68
2023-05-02T02:32:50.583Z,70.21
2023-05-02T02:35:17.271Z,69.84
2023-05-02T02:38:03.204Z,70.06
2023-05-02T02:40:34.586Z,69.95
2023-05-02T02:43:04.321Z,69.98
2023-05-02T02:45:57.850Z,69.56
2023-05-02T02:48:34.919Z,70.07
2023-05-02T02:51:01.649Z,70.42
2023-05-02T02:53:52.049Z,70.37
2023-05-02T02:56:40.394Z,70.49
2023-05-02T02:59:15.636Z,71.23
2023-05-02T03:01:46.733Z,70.52
2023-05-02T03:04:16.102Z,69.44
2023-05-02T03:06:43.151Z,70.23
2023-05-02T03:09:19.887Z,70.40
2023-05-02T03:11:48.726Z,70.01
2023-05-02T03:14:15.939Z,70.36
2023-05-02T03:16:42.834Z,70.26
2023-05-02T03:19:14.297Z,69.97
2023-05-02T03:21:41.793Z,70.33
2023-05-02T03:24:17.175Z,69.98
2023-05-02T03:26:46.979Z,70.92
2023-05-02T03:29:14.983Z,70.80
2023-05-02T03:31:42.831Z,70.14
2023-05-02T03:34:09.896Z,70.52
2023-05-02T03:36:38.253Z,71.12
2023-05-02T03:39:05.003Z,70.62
2023-05-02T03:41:31.795Z,70.26
2023-05-02T03:44:04.395Z,70.13
2023-05-02T03:46:31.605Z,70.22
2023-05-02T03:48:58.546Z,70.37
2023-05-02T03:51:26.049Z,70.16
2023-05-02T03:53:55.321Z,70.60
2023-05-02T03:56:21.987Z,70.52
2023-05-02T03:59:00.167Z,70.38
2023-05-02T04:01:27.664Z,69.85
2023-05-02T04:03:56.194Z,69.87
2023-05-02T04:06:25.763Z,69.96
2023-05-02T04:08:58.625Z,70.07
2023-05-02T04:11:28.989Z,70.02
2023-05-02T04:13:55.878Z,70.45
2023-05-02T04:16:22.831Z,70.64
2023-05-02T04:18:51.008Z,70.38
2023-05-02T04:21:18.471Z,70.34
2023-05-02T04:23:45.929Z,70.31
2023-05-02T04:26:12.608Z,70.55
2023-05-02T04:28:46.227Z,70.47
2023-05-02T04:31:15.437Z,70.45
2023-05-02T04:33:43.912Z,70.61
2023-05-02T04:36:11.832Z,70.73
2023-05-02T04:38:42.164Z,70.20
2023-05-02T04:41:09.899Z,70.70
2023-05-02T04:43:42.222Z,69.88
2023-05-02T04:46:09.417Z,69.78
2023-05-02T04:48:42.054Z,70.38
2023-05-02T04:51:09.600Z,70.91
2023-05-02T04:53:36.936Z,70.75
2023-05-02T04:56:04.196Z,70.68
2023-05-02T04:58:35.179Z,70.04
2023-05-02T05:01:04.703Z,69.35
2023-05-02T05:03:33.152Z,68.70
2023-05-02T05:06:00.140Z,69.26
2023-05-02T05:08:27.700Z,70.58
2023-05-02T05:10:54.503Z,69.00
2023-05-02T05:13:22.593Z,68.39
2023-05-02T05:15:49.947Z,68.64
2023-05-02T05:18:18.132Z,69.10
2023-05-02T05:20:44.925Z,68.33
2023-05-02T05:23:12.412Z,68.29
2023-05-02T05:25:40.373Z,67.87
2023-05-02T05:28:07.902Z,69.24
2023-05-02T05:30:36.802Z,68.96
2023-05-02T05:33:06.250Z,67.80
2023-05-02T05:35:32.872Z,67.18
2023-05-02T05:38:01.475Z,66.66
2023-05-02T05:40:30.682Z,66.51
2023-05-02T05:42:58.912Z,67.64
2023-05-02T05:45:32.743Z,65.49
2023-05-02T05:47:59.455Z,66.30
2023-05-02T05:50:28.929Z,65.59
2023-05-02T05:52:55.649Z,66.23
2023-05-02T05:55:22.343Z,65.59
2023-05-02T05:57:49.011Z,65.47
2023-05-02T06:00:16.077Z,65.89
2023-05-02T06:02:43.962Z,65.90
2023-05-02T06:05:17.650Z,65.21
2023-05-02T06:07:44.570Z,64.38
2023-05-02T06:10:11.342Z,64.29
2023-05-02T06:12:40.691Z,63.92
2023-05-02T06:15:08.926Z,63.79
2023-05-02T06:17:36.064Z,63.88
2023-05-02T06:20:02.986Z,64.20
2023-05-02T06:22:29.732Z,62.76
2023-05-02T06:24:56.304Z,61.76
2023-05-02T06:27:22.965Z,61.86
2023-05-02T06:29:53.300Z,62.12
2023-05-02T06:32:20.076Z,62.56
2023-05-02T06:34:46.799Z,61.59
2023-05-02T06:37:13.352Z,61.38
2023-05-02T06:39:40.208Z,64.02
2023-05-02T06:42:06.768Z,61.76
2023-05-02T06:44:34.243Z,61.33
2023-05-02T06:47:00.958Z,61.93
2023-05-02T06:49:27.647Z,61.84
2023-05-02T06:51:54.213Z,62.20
2023-05-02T06:54:21.808Z,61.51
2023-05-02T06:56:48.589Z,60.57
2023-05-02T06:59:16.947Z,59.72
2023-05-02T07:01:44.755Z,60.39
2023-05-02T07:04:11.463Z,61.69
2023-05-02T07:06:38.310Z,63.51
2023-05-02T07:09:04.922Z,63.35
2023-05-02T07:11:31.522Z,60.64
2023-05-02T07:13:58.158Z,58.92
2023-05-02T07:16:25.114Z,59.98
2023-05-02T07:18:51.698Z,59.37
2023-05-02T07:21:19.188Z,60.60
2023-05-02T07:23:45.801Z,57.98
2023-05-02T07:26:12.579Z,57.99
2023-05-02T07:28:39.162Z,58.18
2023-05-02T07:31:06.190Z,59.31
2023-05-02T07:33:32.775Z,59.21
2023-05-02T07:35:59.450Z,59.09
2023-05-02T07:38:27.746Z,59.27
2023-05-02T07:40:58.531Z,60.27
2023-05-02T07:43:25.393Z,60.15
2023-05-02T07:45:52.089Z,60.63
2023-05-02T07:48:18.807Z,60.89
2023-05-02T07:50:45.445Z,60.90
2023-05-02T07:53:12.272Z,61.84
2023-05-02T07:55:38.861Z,62.19
2023-05-02T07:58:06.430Z,61.77
2023-05-02T08:00:33.628Z,61.85
2023-05-02T08:03:00.396Z,63.23
2023-05-02T08:05:27.213Z,62.09
2023-05-02T08:07:53.842Z,63.41
2023-05-02T08:10:20.494Z,61.81
2023-05-02T08:12:47.271Z,60.71
2023-05-02T08:15:13.915Z,60.62
2023-05-02T08:17:40.679Z,60.88
2023-05-02T08:20:08.068Z,60.79
2023-05-02T08:22:34.771Z,60.25
2023-05-02T08:25:01.437Z,57.42
2023-05-02T08:27:28.024Z,57.87
2023-05-02T08:29:54.595Z,57.92
2023-05-02T08:32:22.371Z,57.85
2023-05-02T08:34:48.936Z,55.57
2023-05-02T08:37:15.554Z,56.76
2023-05-02T08:39:42.190Z,57.40
2023-05-02T08:42:08.922Z,56.22
2023-05-02T08:44:35.838Z,58.03
2023-05-02T08:47:03.414Z,56.60
2023-05-02T08:49:32.292Z,58.71
2023-05-02T08:52:02.216Z,56.97
2023-05-02T08:54:29.328Z,57.08
2023-05-02T08:56:57.152Z,58.49
2023-05-02T08:59:23.709Z,59.30
2023-05-02T09:01:55.274Z,56.67
2023-05-02T09:04:27.364Z,56.54
2023-05-02T09:06:53.957Z,55.39
2023-05-02T09:09:20.689Z,54.27
2023-05-02T09:11:47.820Z,53.46
2023-05-02T09:14:16.027Z,54.16
2023-05-02T09:16:43.524Z,53.84
2023-05-02T09:19:10.808Z,55.89
2023-05-02T09:21:37.406Z,53.88
2023-05-02T09:24:17.128Z,53.75
2023-05-02T09:26:56.100Z,55.98
2023-05-02T09:29:22.966Z,54.88
2023-05-02T09:31:55.555Z,53.65
2023-05-02T09:34:23.474Z,51.01
2023-05-02T09:36:54.802Z,48.63
2023-05-02T09:39:32.268Z,48.99
2023-05-02T09:41:59.909Z,47.68
2023-05-02T09:44:36.130Z,45.79
2023-05-02T09:47:02.907Z,44.39
2023-05-02T09:49:46.679Z,42.70
2023-05-02T09:52:15.634Z,41.19
2023-05-02T09:54:42.511Z,41.55
2023-05-02T09:57:10.669Z,44.21
2023-05-02T09:59:38.693Z,48.53
2023-05-02T10:02:07.528Z,47.83
2023-05-02T10:04:34.921Z,48.94
2023-05-02T10:07:03.304Z,49.38
2023-05-02T10:09:33.926Z,47.86
2023-05-02T10:12:04.885Z,49.08
2023-05-02T10:14:36.085Z,48.55
2023-05-02T10:17:09.849Z,49.52
2023-05-02T10:19:50.985Z,51.19
2023-05-02T10:22:19.715Z,49.61
2023-05-02T10:24:49.275Z,52.04
2023-05-02T10:27:16.315Z,50.38
2023-05-02T10:29:42.954Z,52.24
2023-05-02T10:32:11.058Z,51.20
2023-05-02T10:34:40.546Z,50.51
2023-05-02T10:37:07.263Z,51.82
2023-05-02T10:39:34.179Z,52.16
2023-05-02T10:42:03.444Z,54.49
2023-05-02T10:44:38.666Z,55.52
2023-05-02T10:47:32.788Z,55.74
2023-05-02T10:50:01.947Z,55.37
2023-05-02T10:52:38.109Z,56.94
2023-05-02T10:55:21.898Z,57.26
2023-05-02T10:57:58.255Z,56.61
2023-05-02T11:00:35.124Z,56.39
2023-05-02T11:03:02.665Z,55.27
2023-05-02T11:05:29.736Z,57.14
2023-05-02T11:08:15.312Z,54.72
2023-05-02T11:10:42.126Z,53.18
2023-05-02T11:13:08.789Z,52.33
2023-05-02T11:15:41.634Z,53.32
2023-05-02T11:18:12.800Z,53.44
2023-05-02T11:20:42.126Z,50.53
2023-05-02T11:23:26.943Z,49.98
2023-05-02T11:25:54.858Z,51.88
2023-05-02T11:28:45.852Z,53.59
2023-05-02T11:31:56.874Z,53.93
2023-05-02T11:34:23.559Z,52.69
2023-05-02T11:36:50.105Z,51.73
2023-05-02T11:39:21.750Z,48.83
2023-05-02T11:41:50.982Z,46.15
2023-05-02T11:44:18.326Z,47.97
2023-05-02T11:46:45.045Z,48.18
2023-05-02T11:49:14.894Z,48.53
2023-05-02T11:51:42.021Z,45.29
2023-05-02T11:54:10.157Z,43.04
2023-05-02T11:56:36.813Z,40.54
2023-05-02T11:59:04.316Z,41.83
2023-05-02T12:01:31.330Z,44.60
2023-05-02T12:04:07.078Z,44.96
2023-05-02T12:06:34.474Z,47.28
2023-05-02T12:09:09.258Z,50.65
2023-05-02T12:11:38.901Z,52.32
2023-05-02T12:14:06.702Z,53.23
2023-05-02T12:16:33.971Z,54.07
2023-05-02T12:19:01.306Z,55.68
2023-05-02T12:21:33.360Z,56.91
2023-05-02T12:24:02.108Z,58.86
2023-05-02T12:26:33.596Z,57.09
2023-05-02T12:29:02.640Z,56.17
2023-05-02T12:31:31.382Z,54.87
2023-05-02T12:34:00.110Z,56.54
2023-05-02T12:36:31.093Z,56.00
2023-05-02T12:38:59.734Z,56.72
2023-05-02T12:41:38.215Z,52.48
2023-05-02T12:44:06.101Z,52.64
2023-05-02T12:46:32.979Z,52.11
2023-05-02T12:49:02.565Z,50.02
2023-05-02T12:51:31.428Z,48.43
2023-05-02T12:53:57.971Z,48.29
2023-05-02T12:56:27.586Z,43.87
2023-05-02T12:58:54.218Z,43.48
2023-05-02T13:01:21.494Z,45.20
2023-05-02T13:03:51.374Z,41.39
2023-05-02T13:06:18.650Z,43.09
2023-05-02T13:08:45.293Z,47.40
2023-05-02T13:11:13.028Z,47.34
2023-05-02T13:13:39.590Z,44.51
2023-05-02T13:16:08.012Z,42.25
2023-05-02T13:18:34.849Z,44.58
2023-05-02T13:21:01.559Z,46.19
2023-05-02T13:23:28.219Z,45.51
2023-05-02T13:25:55.497Z,48.80
2023-05-02T13:28:22.110Z,47.79
2023-05-02T13:30:48.977Z,47.67
2023-05-02T13:33:15.914Z,46.50
2023-05-02T13:35:42.655Z,48.50
2023-05-02T13:38:09.403Z,48.31
2023-05-02T13:40:36.032Z,48.28
2023-05-02T13:43:02.669Z,50.32
2023-05-02T13:45:29.482Z,49.97
2023-05-02T13:47:56.153Z,51.17
2023-05-02T13:50:22.731Z,50.66
2023-05-02T13:52:49.599Z,50.70
2023-05-02T13:55:16.397Z,52.78
2023-05-02T13:57:43.521Z,52.00
2023-05-02T14:00:10.729Z,51.64
2023-05-02T14:02:39.272Z,51.83
2023-05-02T14:05:06.443Z,51.41
2023-05-02T14:07:33.085Z,50.09
2023-05-02T14:10:00.014Z,49.79
2023-05-02T14:12:26.995Z,49.24
2023-05-02T14:14:53.665Z,49.10
2023-05-02T14:17:20.276Z,49.59
2023-05-02T14:19:46.903Z,51.38
2023-05-02T14:22:13.563Z,50.92
2023-05-02T14:24:40.164Z,50.81
2023-05-02T14:27:07.707Z,53.60
2023-05-02T14:29:34.324Z,51.16
2023-05-02T14:32:01.105Z,53.46
2023-05-02T14:34:27.811Z,52.67
2023-05-02T14:36:54.457Z,51.54
2023-05-02T14:39:21.117Z,53.57
2023-05-02T14:41:48.173Z,52.65
2023-05-02T14:44:14.733Z,54.51
2023-05-02T14:46:42.039Z,53.80
2023-05-02T14:49:09.310Z,53.78
2023-05-02T14:51:39.419Z,55.25
2023-05-02T14:54:07.146Z,58.79
2023-05-02T14:56:33.853Z,60.66
2023-05-02T14:59:00.742Z,62.00
2023-05-02T15:01:27.495Z,62.82
2023-05-02T15:04:04.965Z,63.44
2023-05-02T15:06:33.845Z,63.27
2023-05-02T15:09:01.514Z,62.91
2023-05-02T15:11:28.057Z,63.77
2023-05-02T15:13:58.420Z,63.54
2023-05-02T15:16:26.999Z,63.95
2023-05-02T15:18:53.964Z,64.28
2023-05-02T15:21:20.925Z,64.26
2023-05-02T15:23:47.818Z,64.35
2023-05-02T15:26:14.571Z,63.12
2023-05-02T15:28:41.418Z,62.80
2023-05-02T15:31:08.149Z,62.91
2023-05-02T15:33:34.808Z,62.66
2023-05-02T15:36:01.451Z,62.37
2023-05-02T15:38:28.192Z,61.84
2023-05-02T15:40:58.728Z,61.70
2023-05-02T15:43:26.173Z,60.23
2023-05-02T15:45:54.740Z,58.76
2023-05-02T15:48:21.823Z,58.94
2023-05-02T15:50:49.026Z,59.29
2023-05-02T15:53:16.728Z,58.53
2023-05-02T15:55:45.713Z,58.53
2023-05-02T15:58:13.082Z,60.23
2023-05-02T16:00:39.686Z,60.23
2023-05-02T16:03:06.518Z,61.94
2023-05-02T16:05:33.243Z,61.64
2023-05-02T16:08:00.495Z,63.36
2023-05-02T16:10:27.431Z,63.44
2023-05-02T16:12:54.259Z,63.47
2023-05-02T16:15:21.740Z,63.74
2023-05-02T16:17:49.380Z,64.16
2023-05-02T16:20:16.863Z,63.31
2023-05-02T16:22:45.969Z,64.08
2023-05-02T16:25:13.710Z,64.32
2023-05-02T16:27:40.937Z,64.58
2023-05-02T16:30:08.175Z,63.74
2023-05-02T16:32:37.209Z,62.96
2023-05-02T16:35:07.043Z,63.84
2023-05-02T16:37:34.926Z,62.60
2023-05-02T16:40:02.398Z,62.82
2023-05-02T16:42:29.698Z,63.01
2023-05-02T16:44:57.362Z,63.45
2023-05-02T16:47:24.243Z,62.79
2023-05-02T16:49:55.520Z,63.67
2023-05-02T16:52:22.463Z,63.14
2023-05-02T16:54:49.396Z,64.19
2023-05-02T16:57:20.856Z,64.15
2023-05-02T16:59:49.168Z,64.17
2023-05-02T17:02:16.267Z,64.40
2023-05-02T17:04:43.316Z,64.75
2023-05-02T17:07:12.199Z,64.73
2023-05-02T17:09:42.177Z,63.93
2023-05-02T17:12:12.939Z,63.42
2023-05-02T17:14:42.296Z,64.30
2023-05-02T17:17:09.746Z,63.42
2023-05-02T17:19:37.015Z,64.00
2023-05-02T17:22:05.162Z,64.23
2023-05-02T17:24:33.103Z,64.64
2023-05-02T17:27:00.881Z,64.66
2023-05-02T17:29:27.580Z,64.31
2023-05-02T17:31:56.791Z,64.18
2023-05-02T17:34:26.712Z,64.32
2023-05-02T17:36:53.259Z,63.62
2023-05-02T17:39:19.860Z,64.86
2023-05-02T17:41:46.447Z,62.59
2023-05-02T17:44:13.087Z,62.21
2023-05-02T17:46:39.704Z,62.21
2023-05-02T17:49:06.536Z,62.21
2023-05-02T17:51:33.697Z,61.00
2023-05-02T17:54:00.954Z,61.35
2023-05-02T17:56:28.397Z,60.83
2023-05-02T17:58:55.383Z,60.32
2023-05-02T18:01:22.090Z,60.99
2023-05-02T18:03:49.955Z,61.18
2023-05-02T18:06:18.139Z,62.21
2023-05-02T18:08:45.888Z,61.58
2023-05-02T18:11:20.122Z,61.26
2023-05-02T18:13:46.876Z,61.98
2023-05-02T18:16:14.125Z,61.44
2023-05-02T18:18:41.487Z,60.73
2023-05-02T18:21:09.546Z,61.05
2023-05-02T18:23:36.256Z,61.07
2023-05-02T18:26:04.093Z,61.44
2023-05-02T18:28:30.820Z,62.11
2023-05-02T18:30:57.439Z,61.58
2023-05-02T18:33:24.265Z,62.25
2023-05-02T18:35:51.083Z,62.10
2023-05-02T18:38:18.183Z,62.08
2023-05-02T18:40:45.562Z,62.89
2023-05-02T18:43:12.172Z,62.94
2023-05-02T18:45:39.023Z,62.43
2023-05-02T18:48:06.016Z,62.19
2023-05-02T18:50:32.749Z,63.37
2023-05-02T18:52:59.353Z,62.50
2023-05-02T18:55:25.902Z,61.16
2023-05-02T18:57:52.526Z,61.47
2023-05-02T19:00:20.468Z,62.11
2023-05-02T19:02:47.740Z,61.82
2023-05-02T19:05:15.027Z,62.00
2023-05-02T19:07:42.285Z,61.45
2023-05-02T19:10:11.004Z,61.92
2023-05-02T19:12:38.261Z,62.05
2023-05-02T19:15:06.588Z,62.62
2023-05-02T19:17:34.118Z,62.43
2023-05-02T19:20:01.262Z,62.33
2023-05-02T19:22:27.904Z,62.49
2023-05-02T19:24:55.167Z,62.37
2023-05-02T19:27:21.815Z,63.08
2023-05-02T19:29:48.445Z,63.28
2023-05-02T19:32:15.760Z,62.73
2023-05-02T19:34:42.434Z,61.30
2023-05-02T19:37:09.499Z,60.84
2023-05-02T19:39:36.130Z,61.09
2023-05-02T19:42:03.142Z,59.50
2023-05-02T19:44:30.199Z,60.48
2023-05-02T19:46:56.865Z,60.52
2023-05-02T19:49:23.522Z,60.44
2023-05-02T19:51:50.407Z,60.89
2023-05-02T19:54:17.054Z,60.78
2023-05-02T19:56:43.713Z,60.73
2023-05-02T19:59:10.291Z,61.35
2023-05-02T20:01:37.058Z,61.64
2023-05-02T20:04:03.848Z,61.57
2023-05-02T20:06:31.925Z,62.21
2023-05-02T20:08:58.664Z,62.51
2023-05-02T20:11:25.923Z,62.99
2023-05-02T20:13:52.581Z,64.01
2023-05-02T20:16:19.357Z,64.18
2023-05-02T20:18:46.328Z,64.20
2023-05-02T20:21:12.884Z,64.64
2023-05-02T20:23:43.537Z,64.86
2023-05-02T20:26:10.736Z,65.82
2023-05-02T20:28:37.868Z,65.64
2023-05-02T20:31:04.897Z,65.76
2023-05-02T20:33:43.805Z,66.49
2023-05-02T20:36:13.373Z,66.90
2023-05-02T20:38:42.660Z,66.97
2023-05-02T20:41:12.291Z,66.70
2023-05-02T20:43:39.735Z,66.60
2023-05-02T20:46:11.186Z,65.80
2023-05-02T20:48:38.088Z,65.64
2023-05-02T20:51:04.833Z,66.54
2023-05-02T20:53:31.608Z,66.47
2023-05-02T20:55:58.256Z,65.94
2023-05-02T20:58:24.903Z,65.45
2023-05-02T21:00:52.637Z,65.94
2023-05-02T21:03:19.939Z,65.87
2023-05-02T21:05:52.422Z,66.52
2023-05-02T21:08:19.375Z,66.38
2023-05-02T21:10:46.236Z,67.54
2023-05-02T21:13:13.150Z,66.97
2023-05-02T21:15:40.351Z,66.99
2023-05-02T21:18:07.435Z,67.17
2023-05-02T21:20:34.565Z,66.82
2023-05-02T21:23:01.196Z,67.06
2023-05-02T21:25:27.805Z,66.68
2023-05-02T21:27:54.385Z,67.09
2023-05-02T21:30:21.112Z,67.87
2023-05-02T21:32:47.791Z,67.52
2023-05-02T21:35:14.452Z,66.99
2023-05-02T21:37:41.189Z,67.20
2023-05-02T21:40:08.486Z,67.23
2023-05-02T21:42:35.174Z,67.46
2023-05-02T21:45:01.860Z,67.21
2023-05-02T21:47:28.538Z,67.20
2023-05-02T21:49:57.052Z,68.74
2023-05-02T21:52:23.647Z,68.10
2023-05-02T21:54:52.385Z,68.23
2023-05-02T21:57:19.321Z,69.14
2023-05-02T21:59:46.312Z,68.64
2023-05-02T22:02:12.910Z,69.21
2023-05-02T22:04:40.428Z,68.88
2023-05-02T22:07:07.422Z,69.49
2023-05-02T22:09:34.050Z,68.83
2023-05-02T22:12:01.068Z,68.85
2023-05-02T22:14:41.102Z,67.80
2023-05-02T22:17:11.562Z,70.27
2023-05-02T22:19:39.323Z,69.81
2023-05-02T22:22:06.629Z,68.97
2023-05-02T22:24:33.761Z,67.82
2023-05-02T22:27:00.522Z,68.06
2023-05-02T22:29:27.084Z,69.29
2023-05-02T22:31:53.688Z,69.31
2023-05-02T22:34:20.358Z,67.73
2023-05-02T22:36:47.052Z,69.29
2023-05-02T22:39:15.647Z,69.44
2023-05-02T22:41:43.069Z,68.52
2023-05-02T22:44:10.945Z,69.48
2023-05-02T22:46:38.413Z,69.17
2023-05-02T22:49:10.385Z,70.42
2023-05-02T22:51:41.904Z,69.24
2023-05-02T22:54:08.724Z,69.25
2023-05-02T22:56:35.492Z,69.35
2023-05-02T22:59:02.149Z,69.60
2023-05-02T23:01:28.999Z,69.10
2023-05-02T23:03:55.854Z,69.94
2023-05-02T23:06:22.584Z,70.07
2023-05-02T23:08:49.285Z,68.90
2023-05-02T23:11:15.954Z,69.21
2023-05-02T23:13:42.545Z,70.19
2023-05-02T23:16:09.186Z,70.22
2023-05-02T23:18:35.967Z,70.30
2023-05-02T23:21:03.975Z,70.65
2023-05-02T23:23:30.973Z,71.75
2023-05-02T23:25:57.884Z,70.92
2023-05-02T23:28:24.526Z,71.97
2023-05-02T23:30:51.408Z,70.34
2023-05-02T23:33:18.111Z,68.80
2023-05-02T23:35:44.792Z,69.19
2023-05-02T23:38:11.422Z,68.89
2023-05-02T23:40:38.009Z,69.19
2023-05-02T23:43:05.121Z,68.87
2023-05-02T23:45:31.724Z,68.84
2023-05-02T23:47:58.356Z,70.69
2023-05-02T23:50:24.910Z,70.51
2023-05-02T23:52:51.548Z,71.00
2023-05-02T23:55:18.205Z,70.26
2023-05-02T23:57:44.774Z,69.50
